createdAt,value
2022-12-13T00:00:02.472Z,21.52
2022-12-13T00:04:54.107Z,20.17
2022-12-13T00:09:46.043Z,23.50
2022-12-13T00:14:39.224Z,22.60
2022-12-13T00:19:30.926Z,28.42
2022-12-13T00:29:14.696Z,27.23
2022-12-13T00:34:06.400Z,31.58
2022-12-13T00:39:01.780Z,30.38
2022-12-13T00:43:53.790Z,30.52
2022-12-13T00:48:50.638Z,31.73
2022-12-13T00:53:42.670Z,29.27
2022-12-13T00:58:35.641Z,33.72
2022-12-13T01:03:27.524Z,32.40
2022-12-13T01:08:19.388Z,40.22
2022-12-13T01:13:11.421Z,45.33
2022-12-13T01:18:03.144Z,40.83
2022-12-13T01:22:54.910Z,46.90
2022-12-13T01:27:46.603Z,45.58
2022-12-13T01:32:38.545Z,42.55
2022-12-13T01:37:30.596Z,45.35
2022-12-13T01:42:22.285Z,45.00
2022-12-13T01:47:19.190Z,45.33
2022-12-13T01:52:14.454Z,39.33
2022-12-13T01:57:10.796Z,48.17
2022-12-13T02:02:03.030Z,59.95
2022-12-13T02:06:57.378Z,49.00
2022-12-13T02:11:49.860Z,61.55
2022-12-13T02:16:57.210Z,51.60
2022-12-13T02:21:51.946Z,51.53
2022-12-13T02:26:56.074Z,61.65
2022-12-13T02:32:00.515Z,47.67
2022-12-13T02:37:18.662Z,56.67
2022-12-13T02:42:25.687Z,59.42
2022-12-13T02:47:25.898Z,62.10
2022-12-13T02:52:22.495Z,61.45
2022-12-13T02:57:31.254Z,55.85
2022-12-13T03:02:43.252Z,52.90
2022-12-13T03:07:55.765Z,58.17
2022-12-13T03:13:38.148Z,54.42
2022-12-13T03:18:33.082Z,50.92
2022-12-13T03:23:25.955Z,53.97
2022-12-13T03:28:18.030Z,54.45
2022-12-13T03:33:09.965Z,51.40
2022-12-13T03:38:02.161Z,54.78
2022-12-13T03:42:53.859Z,49.00
2022-12-13T03:47:45.573Z,52.92
2022-12-13T03:52:37.268Z,52.30
2022-12-13T03:57:29.431Z,45.63
2022-12-13T04:02:30.739Z,49.67
2022-12-13T04:07:23.496Z,42.75
2022-12-13T04:12:33.704Z,38.60
2022-12-13T04:17:25.391Z,45.70
2022-12-13T04:22:23.284Z,43.50
2022-12-13T04:27:16.663Z,40.33
2022-12-13T04:32:26.503Z,46.22
2022-12-13T04:37:19.042Z,42.67
2022-12-13T04:42:11.803Z,38.90
2022-12-13T04:47:03.723Z,39.88
2022-12-13T04:52:00.509Z,38.03
2022-12-13T04:56:53.139Z,39.47
2022-12-13T05:01:45.071Z,36.28
2022-12-13T05:06:36.895Z,33.00
2022-12-13T05:11:35.921Z,41.58
2022-12-13T05:16:27.964Z,36.00
2022-12-13T05:21:19.781Z,37.70
2022-12-13T05:26:11.486Z,37.33
2022-12-13T05:31:23.638Z,33.88
2022-12-13T05:36:15.860Z,34.45
2022-12-13T05:41:13.711Z,28.67
2022-12-13T05:46:05.895Z,25.88
2022-12-13T05:51:09.909Z,34.30
2022-12-13T05:56:03.599Z,33.33
2022-12-13T06:00:55.529Z,30.20
2022-12-13T06:05:47.423Z,28.30
2022-12-13T06:10:39.279Z,28.98
2022-12-13T06:15:34.558Z,25.88
2022-12-13T06:20:27.139Z,27.17
2022-12-13T06:25:30.694Z,25.15
2022-12-13T06:30:23.818Z,26.55
2022-12-13T06:35:27.909Z,25.15
2022-12-13T06:40:23.207Z,23.60
2022-12-13T06:45:15.385Z,25.83
2022-12-13T06:50:07.770Z,26.70
2022-12-13T06:55:00.071Z,25.08
2022-12-13T06:59:52.166Z,24.75
2022-12-13T07:04:44.395Z,21.58
2022-12-13T07:09:36.816Z,24.40
2022-12-13T07:14:28.636Z,30.25
2022-12-13T07:19:24.031Z,30.58
2022-12-13T07:24:16.416Z,29.67
2022-12-13T07:29:08.190Z,29.30
2022-12-13T07:34:00.395Z,26.23
2022-12-13T07:38:57.157Z,29.13
2022-12-13T07:43:48.936Z,25.95
2022-12-13T07:48:47.181Z,28.23
2022-12-13T07:53:39.957Z,23.55
2022-12-13T07:58:33.538Z,30.17
2022-12-13T08:03:26.593Z,32.20
2022-12-13T08:08:21.183Z,33.58
2022-12-13T08:13:12.889Z,31.10
2022-12-13T08:18:05.297Z,29.05
2022-12-13T08:23:01.754Z,27.42
2022-12-13T08:27:54.169Z,28.38
2022-12-13T08:32:53.408Z,31.02
2022-12-13T08:37:45.128Z,26.23
2022-12-13T08:42:37.239Z,30.15
2022-12-13T08:47:29.011Z,28.48
2022-12-13T08:52:22.867Z,33.45
2022-12-13T08:57:14.921Z,28.80
2022-12-13T09:02:06.742Z,32.60
2022-12-13T09:06:58.534Z,27.05
2022-12-13T09:11:53.556Z,30.20
2022-12-13T09:16:51.857Z,30.92
2022-12-13T09:21:43.727Z,32.03
2022-12-13T09:26:38.463Z,27.88
2022-12-13T09:31:30.496Z,29.30
2022-12-13T09:36:22.687Z,22.05
2022-12-13T09:41:34.467Z,31.48
2022-12-13T09:46:45.158Z,35.47
2022-12-13T09:51:41.470Z,28.67
2022-12-13T09:56:35.601Z,29.65
2022-12-13T10:01:27.723Z,29.90
2022-12-13T10:06:24.357Z,26.58
2022-12-13T10:11:18.004Z,28.25
2022-12-13T10:16:23.590Z,32.92
2022-12-13T10:21:22.709Z,27.33
2022-12-13T10:26:24.178Z,29.60
2022-12-13T10:31:20.706Z,26.40
2022-12-13T10:36:30.012Z,30.60
2022-12-13T10:41:37.055Z,27.63
2022-12-13T10:46:31.264Z,29.30
2022-12-13T10:51:38.743Z,28.00
2022-12-13T10:56:37.626Z,32.22
2022-12-13T11:01:29.499Z,29.80
2022-12-13T11:06:21.385Z,29.08
2022-12-13T11:11:18.690Z,26.40
2022-12-13T11:16:34.205Z,26.50
2022-12-13T11:21:31.059Z,26.23
2022-12-13T11:26:25.461Z,28.70
2022-12-13T11:31:41.641Z,34.33
2022-12-13T11:36:36.427Z,30.65
2022-12-13T11:41:34.656Z,29.92
2022-12-13T11:46:40.324Z,28.35
2022-12-13T11:51:43.264Z,32.90
2022-12-13T11:56:40.317Z,28.55
2022-12-13T12:01:44.119Z,26.23
2022-12-13T12:06:45.482Z,27.95
2022-12-13T12:11:37.063Z,28.85
2022-12-13T12:16:40.726Z,30.88
2022-12-13T12:22:12.174Z,28.02
2022-12-13T12:26:49.997Z,29.42
2022-12-13T12:32:14.050Z,32.03
2022-12-13T12:37:42.977Z,25.20
2022-12-13T12:43:14.454Z,26.67
2022-12-13T12:53:48.228Z,27.35
2022-12-13T12:58:51.437Z,25.10
2022-12-13T13:03:44.987Z,26.88
2022-12-13T13:08:59.410Z,27.65
2022-12-13T13:14:35.199Z,26.02
2022-12-13T13:19:32.761Z,24.77
2022-12-13T13:24:32.593Z,27.10
2022-12-13T13:29:27.324Z,25.10
2022-12-13T13:34:29.329Z,21.25
2022-12-13T13:39:56.285Z,23.27
2022-12-13T13:44:51.478Z,21.90
2022-12-13T13:50:27.725Z,27.15
2022-12-13T13:55:22.589Z,21.38
2022-12-13T14:00:19.160Z,24.08
2022-12-13T14:05:30.134Z,26.60
2022-12-13T14:10:52.392Z,21.13
2022-12-13T14:16:20.188Z,21.08
2022-12-13T14:21:15.284Z,22.50
2022-12-13T14:26:34.236Z,22.08
2022-12-13T14:31:39.589Z,24.05
2022-12-13T14:36:35.375Z,20.60
2022-12-13T14:41:27.145Z,19.95
2022-12-13T14:46:19.384Z,20.90
2022-12-13T14:51:38.557Z,20.27
2022-12-13T14:56:30.626Z,16.50
2022-12-13T15:01:25.490Z,18.13
2022-12-13T15:06:22.207Z,21.23
2022-12-13T15:11:14.651Z,17.27
2022-12-13T15:16:11.420Z,17.45
2022-12-13T15:21:03.323Z,20.02
2022-12-13T15:26:28.101Z,19.83
2022-12-13T15:31:22.373Z,19.75
2022-12-13T15:36:19.966Z,22.27
2022-12-13T15:41:18.477Z,19.37
2022-12-13T15:46:10.522Z,20.20
2022-12-13T15:51:29.435Z,21.13
2022-12-13T15:57:04.548Z,18.80
2022-12-13T16:01:58.703Z,21.08
2022-12-13T16:06:55.758Z,19.75
2022-12-13T16:11:53.599Z,19.77
2022-12-13T16:16:45.425Z,25.95
2022-12-13T16:21:37.035Z,27.42
2022-12-13T16:26:29.366Z,19.73
2022-12-13T16:31:25.819Z,22.45
2022-12-13T16:36:18.160Z,21.38
2022-12-13T16:41:10.395Z,21.05
2022-12-13T16:47:10.309Z,22.73
2022-12-13T16:51:16.642Z,21.88
2022-12-13T16:56:11.478Z,22.40
2022-12-13T17:01:15.046Z,25.70
2022-12-13T17:06:09.963Z,28.92
2022-12-13T17:11:01.724Z,27.60
2022-12-13T17:15:59.747Z,26.58
2022-12-13T17:20:58.148Z,26.08
2022-12-13T17:25:58.722Z,29.25
2022-12-13T17:30:54.449Z,28.77
2022-12-13T17:35:47.345Z,34.30
2022-12-13T17:40:39.212Z,30.05
2022-12-13T17:45:30.931Z,37.95
2022-12-13T17:50:22.630Z,43.03
2022-12-13T17:55:18.334Z,32.95
2022-12-13T18:00:11.027Z,37.63
2022-12-13T18:05:02.823Z,37.55
2022-12-13T18:09:54.527Z,30.70
2022-12-13T18:14:46.220Z,27.27
2022-12-13T18:19:37.909Z,36.28
2022-12-13T18:24:29.605Z,34.88
2022-12-13T18:29:21.792Z,35.17
2022-12-13T18:34:13.582Z,37.65
2022-12-13T18:39:05.613Z,39.65
2022-12-13T18:44:00.422Z,45.72
2022-12-13T18:48:52.180Z,45.88
2022-12-13T18:53:43.992Z,40.65
2022-12-13T18:58:36.587Z,42.22
2022-12-13T19:03:28.716Z,35.17
2022-12-13T19:08:26.372Z,37.17
2022-12-13T19:13:18.321Z,34.72
2022-12-13T19:18:10.864Z,38.25
2022-12-13T19:23:02.647Z,38.03
2022-12-13T19:27:56.922Z,43.10
2022-12-13T19:32:48.744Z,44.25
2022-12-13T19:37:40.600Z,39.53
2022-12-13T19:42:32.404Z,44.22
2022-12-13T19:47:24.189Z,48.55
2022-12-13T19:52:15.828Z,48.60
2022-12-13T19:57:08.051Z,48.90
2022-12-13T20:02:00.184Z,54.65
2022-12-13T20:06:51.975Z,48.17
2022-12-13T20:11:43.666Z,58.63
2022-12-13T20:16:35.389Z,54.28
2022-12-13T20:21:28.773Z,61.80
2022-12-13T20:26:23.271Z,56.70
2022-12-13T20:31:18.606Z,60.03
2022-12-13T20:36:24.747Z,62.78
2022-12-13T20:41:17.445Z,63.05
2022-12-13T20:46:11.809Z,66.72
2022-12-13T20:51:06.006Z,77.30
2022-12-13T20:55:58.095Z,61.70
2022-12-13T21:00:49.951Z,61.20
2022-12-13T21:05:44.613Z,57.90
2022-12-13T21:10:36.338Z,60.75
2022-12-13T21:15:28.148Z,55.92
2022-12-13T21:20:20.120Z,62.08
2022-12-13T21:25:11.834Z,61.85
2022-12-13T21:30:04.002Z,61.80
2022-12-13T21:34:55.692Z,57.17
2022-12-13T21:39:47.421Z,58.70
2022-12-13T21:44:39.099Z,63.55
2022-12-13T21:49:30.976Z,55.22
2022-12-13T21:54:22.932Z,59.28
2022-12-13T21:59:16.399Z,54.83
2022-12-13T22:04:08.114Z,56.70
2022-12-13T22:08:59.923Z,56.03
2022-12-13T22:13:51.524Z,55.65
2022-12-13T22:18:43.259Z,54.50
2022-12-13T22:23:34.956Z,43.65
2022-12-13T22:28:29.701Z,32.15
2022-12-13T22:33:21.597Z,43.33
2022-12-13T22:38:13.475Z,49.67
2022-12-13T22:43:05.202Z,43.95
2022-12-13T22:47:56.916Z,44.45
2022-12-13T22:52:48.592Z,55.53
2022-12-13T22:57:40.460Z,47.17
2022-12-13T23:02:32.184Z,49.45
2022-12-13T23:07:24.051Z,46.58
2022-12-13T23:12:34.866Z,55.85
2022-12-13T23:17:26.716Z,49.90
2022-12-13T23:22:22.594Z,61.20
2022-12-13T23:27:14.520Z,55.85
2022-12-13T23:32:06.391Z,52.90
2022-12-13T23:36:58.371Z,58.17
2022-12-13T23:41:50.287Z,60.67
2022-12-13T23:46:42.193Z,53.70
2022-12-13T23:56:32.681Z,54.60
